Metar Aviation Weather Data        EGKK Shoreham Airport
Temperature
27°C Temperature
14°C Dewpoint
45% Humidity



Wind
8 MPH
13 KM/H
4 M/S
7 KTS



50°
NE
Current Conditions

Mostly Sunny Mostly Sunny
Pressure 1014 (hPa) - 29.93 (inHg)
Visibility 6 (mile) - 10 (km)
Airport
Airport-code EGKK

Location: Shoreham Airport
Distance: 9 (mi)

Metar:
METAR EGKK 251420Z 05007KT 020V090 CAVOK 27/14 Q1014

Time: 25-06-2024 15:20 BST